sensor_id;sensor_type;location;lat;lon;timestamp;P1;durP1;ratioP1;P2;durP2;ratioP2
14766;SDS011;7475;53.558;9.970;2023-01-09T00:00:14;3.88;;;1.80;;
14766;SDS011;7475;53.558;9.970;2023-01-09T00:02:40;2.38;;;1.70;;
14766;SDS011;7475;53.558;9.970;2023-01-09T00:05:06;1.90;;;1.80;;
14766;SDS011;7475;53.558;9.970;2023-01-09T00:07:31;1.80;;;1.48;;
14766;SDS011;7475;53.558;9.970;2023-01-09T00:09:59;3.83;;;2.20;;
14766;SDS011;7475;53.558;9.970;2023-01-09T00:12:25;2.10;;;1.90;;
14766;SDS011;7475;53.558;9.970;2023-01-09T00:14:50;1.90;;;1.50;;
14766;SDS011;7475;53.558;9.970;2023-01-09T00:17:15;2.63;;;1.63;;
14766;SDS011;7475;53.558;9.970;2023-01-09T00:19:40;1.73;;;1.63;;
14766;SDS011;7475;53.558;9.970;2023-01-09T00:22:05;2.55;;;1.58;;
14766;SDS011;7475;53.558;9.970;2023-01-09T00:24:33;2.35;;;1.55;;
14766;SDS011;7475;53.558;9.970;2023-01-09T00:26:58;2.22;;;1.60;;
14766;SDS011;7475;53.558;9.970;2023-01-09T00:29:23;1.70;;;1.50;;
14766;SDS011;7475;53.558;9.970;2023-01-09T00:31:49;2.42;;;1.65;;
14766;SDS011;7475;53.558;9.970;2023-01-09T00:34:14;2.72;;;1.67;;
14766;SDS011;7475;53.558;9.970;2023-01-09T00:36:39;1.50;;;1.40;;
14766;SDS011;7475;53.558;9.970;2023-01-09T00:39:04;2.47;;;1.60;;
14766;SDS011;7475;53.558;9.970;2023-01-09T00:41:40;2.03;;;1.60;;
14766;SDS011;7475;53.558;9.970;2023-01-09T00:44:07;2.85;;;1.80;;
14766;SDS011;7475;53.558;9.970;2023-01-09T00:46:36;2.20;;;1.30;;
14766;SDS011;7475;53.558;9.970;2023-01-09T00:49:03;1.80;;;1.40;;
14766;SDS011;7475;53.558;9.970;2023-01-09T00:51:29;1.60;;;1.33;;
14766;SDS011;7475;53.558;9.970;2023-01-09T00:53:54;2.05;;;1.70;;
14766;SDS011;7475;53.558;9.970;2023-01-09T00:56:20;1.55;;;1.42;;
14766;SDS011;7475;53.558;9.970;2023-01-09T00:58:46;3.33;;;1.30;;
14766;SDS011;7475;53.558;9.970;2023-01-09T01:01:11;2.47;;;1.60;;
14766;SDS011;7475;53.558;9.970;2023-01-09T01:03:37;3.88;;;1.60;;
14766;SDS011;7475;53.558;9.970;2023-01-09T01:06:02;4.30;;;1.50;;
14766;SDS011;7475;53.558;9.970;2023-01-09T01:08:46;2.08;;;1.48;;
14766;SDS011;7475;53.558;9.970;2023-01-09T01:11:11;1.67;;;1.58;;
14766;SDS011;7475;53.558;9.970;2023-01-09T01:13:37;2.20;;;1.73;;
14766;SDS011;7475;53.558;9.970;2023-01-09T01:16:03;3.15;;;1.67;;
14766;SDS011;7475;53.558;9.970;2023-01-09T01:18:29;2.92;;;1.52;;
14766;SDS011;7475;53.558;9.970;2023-01-09T01:20:54;6.38;;;1.70;;
14766;SDS011;7475;53.558;9.970;2023-01-09T01:23:19;2.15;;;1.75;;
14766;SDS011;7475;53.558;9.970;2023-01-09T01:25:44;1.88;;;1.52;;
14766;SDS011;7475;53.558;9.970;2023-01-09T01:28:09;4.32;;;1.83;;
14766;SDS011;7475;53.558;9.970;2023-01-09T01:30:38;2.95;;;2.28;;
14766;SDS011;7475;53.558;9.970;2023-01-09T01:33:05;2.85;;;2.00;;
14766;SDS011;7475;53.558;9.970;2023-01-09T01:35:30;2.55;;;1.88;;
14766;SDS011;7475;53.558;9.970;2023-01-09T01:37:55;4.35;;;1.98;;
14766;SDS011;7475;53.558;9.970;2023-01-09T01:40:20;3.10;;;1.83;;
14766;SDS011;7475;53.558;9.970;2023-01-09T01:42:49;2.90;;;1.77;;
14766;SDS011;7475;53.558;9.970;2023-01-09T01:45:19;2.95;;;1.98;;
14766;SDS011;7475;53.558;9.970;2023-01-09T01:50:15;4.20;;;1.60;;
14766;SDS011;7475;53.558;9.970;2023-01-09T01:52:42;1.85;;;1.63;;
14766;SDS011;7475;53.558;9.970;2023-01-09T01:55:09;4.38;;;1.58;;
14766;SDS011;7475;53.558;9.970;2023-01-09T01:57:35;2.42;;;1.80;;
14766;SDS011;7475;53.558;9.970;2023-01-09T02:00:02;3.17;;;1.63;;
14766;SDS011;7475;53.558;9.970;2023-01-09T02:02:28;3.33;;;2.35;;
14766;SDS011;7475;53.558;9.970;2023-01-09T02:04:54;4.40;;;1.45;;
14766;SDS011;7475;53.558;9.970;2023-01-09T02:07:20;2.70;;;1.80;;
14766;SDS011;7475;53.558;9.970;2023-01-09T02:09:45;1.70;;;1.33;;
14766;SDS011;7475;53.558;9.970;2023-01-09T02:12:20;3.85;;;1.67;;
14766;SDS011;7475;53.558;9.970;2023-01-09T02:14:51;2.33;;;1.60;;
14766;SDS011;7475;53.558;9.970;2023-01-09T02:17:28;2.70;;;1.80;;
14766;SDS011;7475;53.558;9.970;2023-01-09T02:23:00;2.10;;;1.85;;
14766;SDS011;7475;53.558;9.970;2023-01-09T02:30:50;5.70;;;2.00;;
14766;SDS011;7475;53.558;9.970;2023-01-09T02:33:23;2.95;;;1.70;;
14766;SDS011;7475;53.558;9.970;2023-01-09T02:38:21;3.53;;;2.00;;
14766;SDS011;7475;53.558;9.970;2023-01-09T02:41:05;1.98;;;1.50;;
14766;SDS011;7475;53.558;9.970;2023-01-09T02:43:32;4.05;;;1.80;;
14766;SDS011;7475;53.558;9.970;2023-01-09T02:45:57;2.30;;;1.65;;
14766;SDS011;7475;53.558;9.970;2023-01-09T02:48:22;3.55;;;1.90;;
14766;SDS011;7475;53.558;9.970;2023-01-09T02:51:00;2.95;;;2.10;;
14766;SDS011;7475;53.558;9.970;2023-01-09T03:04:21;3.28;;;1.55;;
14766;SDS011;7475;53.558;9.970;2023-01-09T03:06:54;2.20;;;1.48;;
14766;SDS011;7475;53.558;9.970;2023-01-09T03:09:21;2.95;;;1.60;;
14766;SDS011;7475;53.558;9.970;2023-01-09T03:11:52;3.42;;;1.58;;
14766;SDS011;7475;53.558;9.970;2023-01-09T03:14:20;2.10;;;1.60;;
14766;SDS011;7475;53.558;9.970;2023-01-09T03:16:47;1.75;;;1.50;;
14766;SDS011;7475;53.558;9.970;2023-01-09T03:19:15;2.45;;;1.58;;
14766;SDS011;7475;53.558;9.970;2023-01-09T03:21:42;3.22;;;1.50;;
14766;SDS011;7475;53.558;9.970;2023-01-09T03:24:08;1.98;;;1.70;;
14766;SDS011;7475;53.558;9.970;2023-01-09T03:26:33;3.03;;;1.42;;
14766;SDS011;7475;53.558;9.970;2023-01-09T03:28:59;2.05;;;1.20;;
14766;SDS011;7475;53.558;9.970;2023-01-09T03:31:24;3.28;;;1.30;;
14766;SDS011;7475;53.558;9.970;2023-01-09T03:33:49;2.65;;;1.42;;
14766;SDS011;7475;53.558;9.970;2023-01-09T03:36:15;3.05;;;1.75;;
14766;SDS011;7475;53.558;9.970;2023-01-09T03:38:41;2.00;;;1.48;;
14766;SDS011;7475;53.558;9.970;2023-01-09T03:41:06;2.20;;;1.90;;
14766;SDS011;7475;53.558;9.970;2023-01-09T03:43:31;2.33;;;1.40;;
14766;SDS011;7475;53.558;9.970;2023-01-09T03:45:56;2.13;;;1.40;;
14766;SDS011;7475;53.558;9.970;2023-01-09T03:48:22;1.95;;;1.40;;
14766;SDS011;7475;53.558;9.970;2023-01-09T03:50:47;1.70;;;1.13;;
14766;SDS011;7475;53.558;9.970;2023-01-09T03:53:13;3.42;;;1.58;;
14766;SDS011;7475;53.558;9.970;2023-01-09T03:55:49;2.13;;;1.38;;
14766;SDS011;7475;53.558;9.970;2023-01-09T03:58:14;1.95;;;1.40;;
14766;SDS011;7475;53.558;9.970;2023-01-09T04:00:40;4.53;;;1.67;;
14766;SDS011;7475;53.558;9.970;2023-01-09T04:03:06;3.70;;;1.42;;
14766;SDS011;7475;53.558;9.970;2023-01-09T04:05:31;3.28;;;1.45;;
14766;SDS011;7475;53.558;9.970;2023-01-09T04:07:57;1.67;;;1.10;;
14766;SDS011;7475;53.558;9.970;2023-01-09T04:10:22;1.83;;;1.40;;
14766;SDS011;7475;53.558;9.970;2023-01-09T04:12:47;2.58;;;1.38;;
14766;SDS011;7475;53.558;9.970;2023-01-09T04:15:12;2.63;;;1.20;;
14766;SDS011;7475;53.558;9.970;2023-01-09T04:17:37;2.10;;;1.20;;
14766;SDS011;7475;53.558;9.970;2023-01-09T04:20:03;3.08;;;1.30;;
14766;SDS011;7475;53.558;9.970;2023-01-09T04:22:28;3.03;;;1.50;;
14766;SDS011;7475;53.558;9.970;2023-01-09T04:24:55;3.08;;;1.38;;
14766;SDS011;7475;53.558;9.970;2023-01-09T04:27:20;1.58;;;1.48;;
14766;SDS011;7475;53.558;9.970;2023-01-09T04:29:45;1.23;;;1.10;;
14766;SDS011;7475;53.558;9.970;2023-01-09T04:32:10;2.05;;;1.30;;
14766;SDS011;7475;53.558;9.970;2023-01-09T04:34:35;1.63;;;1.08;;
14766;SDS011;7475;53.558;9.970;2023-01-09T04:37:01;1.95;;;1.30;;
14766;SDS011;7475;53.558;9.970;2023-01-09T04:39:26;6.78;;;3.95;;
14766;SDS011;7475;53.558;9.970;2023-01-09T04:41:51;2.63;;;1.42;;
14766;SDS011;7475;53.558;9.970;2023-01-09T04:44:17;2.47;;;1.40;;
14766;SDS011;7475;53.558;9.970;2023-01-09T04:46:42;3.47;;;1.40;;
14766;SDS011;7475;53.558;9.970;2023-01-09T04:49:08;2.55;;;1.40;;
14766;SDS011;7475;53.558;9.970;2023-01-09T04:51:33;2.90;;;1.40;;
14766;SDS011;7475;53.558;9.970;2023-01-09T04:53:58;1.33;;;0.93;;
14766;SDS011;7475;53.558;9.970;2023-01-09T04:56:23;2.22;;;1.52;;
14766;SDS011;7475;53.558;9.970;2023-01-09T04:58:48;1.98;;;1.30;;
14766;SDS011;7475;53.558;9.970;2023-01-09T05:01:14;2.78;;;1.40;;
14766;SDS011;7475;53.558;9.970;2023-01-09T05:03:39;2.47;;;1.42;;
14766;SDS011;7475;53.558;9.970;2023-01-09T05:06:04;2.13;;;1.42;;
14766;SDS011;7475;53.558;9.970;2023-01-09T05:08:29;2.15;;;1.30;;
14766;SDS011;7475;53.558;9.970;2023-01-09T05:10:55;1.83;;;1.20;;
14766;SDS011;7475;53.558;9.970;2023-01-09T05:13:20;1.95;;;1.50;;
14766;SDS011;7475;53.558;9.970;2023-01-09T05:15:45;5.75;;;1.73;;
14766;SDS011;7475;53.558;9.970;2023-01-09T05:18:10;2.25;;;1.38;;
14766;SDS011;7475;53.558;9.970;2023-01-09T05:20:35;2.63;;;1.40;;
14766;SDS011;7475;53.558;9.970;2023-01-09T05:23:01;1.75;;;1.30;;
14766;SDS011;7475;53.558;9.970;2023-01-09T05:25:26;3.58;;;1.80;;
14766;SDS011;7475;53.558;9.970;2023-01-09T05:27:51;4.30;;;1.98;;
14766;SDS011;7475;53.558;9.970;2023-01-09T05:30:17;2.17;;;1.70;;
14766;SDS011;7475;53.558;9.970;2023-01-09T05:32:42;2.42;;;1.73;;
14766;SDS011;7475;53.558;9.970;2023-01-09T05:35:08;2.65;;;1.50;;
14766;SDS011;7475;53.558;9.970;2023-01-09T05:37:33;3.45;;;2.00;;
14766;SDS011;7475;53.558;9.970;2023-01-09T05:39:58;5.07;;;1.90;;
14766;SDS011;7475;53.558;9.970;2023-01-09T05:42:23;3.85;;;1.90;;
14766;SDS011;7475;53.558;9.970;2023-01-09T05:44:48;2.88;;;1.63;;
14766;SDS011;7475;53.558;9.970;2023-01-09T05:47:14;2.60;;;1.75;;
14766;SDS011;7475;53.558;9.970;2023-01-09T05:49:39;2.60;;;1.92;;
14766;SDS011;7475;53.558;9.970;2023-01-09T05:52:04;1.63;;;1.38;;
14766;SDS011;7475;53.558;9.970;2023-01-09T05:54:29;3.80;;;1.63;;
14766;SDS011;7475;53.558;9.970;2023-01-09T05:56:54;7.07;;;4.22;;
14766;SDS011;7475;53.558;9.970;2023-01-09T05:59:20;2.85;;;1.70;;
14766;SDS011;7475;53.558;9.970;2023-01-09T06:01:45;2.35;;;1.45;;
14766;SDS011;7475;53.558;9.970;2023-01-09T06:04:10;4.90;;;2.20;;
14766;SDS011;7475;53.558;9.970;2023-01-09T06:06:35;4.00;;;2.30;;
14766;SDS011;7475;53.558;9.970;2023-01-09T06:09:00;1.67;;;1.40;;
14766;SDS011;7475;53.558;9.970;2023-01-09T06:11:27;2.13;;;1.50;;
14766;SDS011;7475;53.558;9.970;2023-01-09T06:13:52;3.22;;;1.60;;
14766;SDS011;7475;53.558;9.970;2023-01-09T06:16:17;3.28;;;1.58;;
14766;SDS011;7475;53.558;9.970;2023-01-09T06:18:43;3.80;;;1.65;;
14766;SDS011;7475;53.558;9.970;2023-01-09T06:21:08;3.17;;;2.05;;
14766;SDS011;7475;53.558;9.970;2023-01-09T06:23:33;2.13;;;1.50;;
14766;SDS011;7475;53.558;9.970;2023-01-09T06:25:58;2.17;;;1.92;;
14766;SDS011;7475;53.558;9.970;2023-01-09T06:28:23;2.13;;;1.92;;
14766;SDS011;7475;53.558;9.970;2023-01-09T06:30:49;3.70;;;2.30;;
14766;SDS011;7475;53.558;9.970;2023-01-09T06:33:14;2.92;;;2.13;;
14766;SDS011;7475;53.558;9.970;2023-01-09T06:35:40;3.25;;;1.85;;
14766;SDS011;7475;53.558;9.970;2023-01-09T06:38:05;3.75;;;2.17;;
14766;SDS011;7475;53.558;9.970;2023-01-09T06:40:30;4.45;;;2.40;;
14766;SDS011;7475;53.558;9.970;2023-01-09T06:42:55;3.30;;;2.80;;
14766;SDS011;7475;53.558;9.970;2023-01-09T06:45:21;3.88;;;3.15;;
14766;SDS011;7475;53.558;9.970;2023-01-09T06:47:46;4.90;;;2.47;;
14766;SDS011;7475;53.558;9.970;2023-01-09T06:50:12;3.85;;;2.58;;
14766;SDS011;7475;53.558;9.970;2023-01-09T06:52:37;4.38;;;3.00;;
14766;SDS011;7475;53.558;9.970;2023-01-09T06:55:03;4.82;;;2.67;;
14766;SDS011;7475;53.558;9.970;2023-01-09T06:57:28;6.85;;;3.10;;
14766;SDS011;7475;53.558;9.970;2023-01-09T06:59:53;3.50;;;3.13;;
14766;SDS011;7475;53.558;9.970;2023-01-09T07:02:19;4.00;;;3.60;;
14766;SDS011;7475;53.558;9.970;2023-01-09T07:04:45;3.25;;;2.88;;
14766;SDS011;7475;53.558;9.970;2023-01-09T07:07:10;4.82;;;3.42;;
14766;SDS011;7475;53.558;9.970;2023-01-09T07:09:35;4.20;;;3.80;;
14766;SDS011;7475;53.558;9.970;2023-01-09T07:12:00;4.50;;;3.90;;
14766;SDS011;7475;53.558;9.970;2023-01-09T07:14:26;4.38;;;3.85;;
14766;SDS011;7475;53.558;9.970;2023-01-09T07:16:51;4.90;;;4.03;;
14766;SDS011;7475;53.558;9.970;2023-01-09T07:19:16;5.10;;;4.47;;
14766;SDS011;7475;53.558;9.970;2023-01-09T07:21:41;4.78;;;4.28;;
14766;SDS011;7475;53.558;9.970;2023-01-09T07:24:06;5.40;;;3.75;;
14766;SDS011;7475;53.558;9.970;2023-01-09T07:26:32;6.20;;;4.45;;
14766;SDS011;7475;53.558;9.970;2023-01-09T07:28:57;8.93;;;4.95;;
14766;SDS011;7475;53.558;9.970;2023-01-09T07:31:22;5.50;;;5.00;;
14766;SDS011;7475;53.558;9.970;2023-01-09T07:33:47;4.80;;;4.40;;
14766;SDS011;7475;53.558;9.970;2023-01-09T07:36:13;4.85;;;4.35;;
14766;SDS011;7475;53.558;9.970;2023-01-09T07:38:38;4.78;;;4.35;;
14766;SDS011;7475;53.558;9.970;2023-01-09T07:41:04;5.40;;;4.90;;
14766;SDS011;7475;53.558;9.970;2023-01-09T07:43:29;5.32;;;4.82;;
14766;SDS011;7475;53.558;9.970;2023-01-09T07:45:54;5.80;;;5.15;;
14766;SDS011;7475;53.558;9.970;2023-01-09T07:48:19;5.38;;;4.88;;
14766;SDS011;7475;53.558;9.970;2023-01-09T07:50:45;5.65;;;5.15;;
14766;SDS011;7475;53.558;9.970;2023-01-09T07:53:10;6.03;;;5.47;;
14766;SDS011;7475;53.558;9.970;2023-01-09T07:55:35;8.52;;;5.85;;
14766;SDS011;7475;53.558;9.970;2023-01-09T07:58:00;7.50;;;5.90;;
14766;SDS011;7475;53.558;9.970;2023-01-09T08:00:27;7.82;;;6.18;;
14766;SDS011;7475;53.558;9.970;2023-01-09T08:02:52;7.80;;;6.70;;
14766;SDS011;7475;53.558;9.970;2023-01-09T08:05:18;7.80;;;5.35;;
14766;SDS011;7475;53.558;9.970;2023-01-09T08:07:43;6.47;;;5.78;;
14766;SDS011;7475;53.558;9.970;2023-01-09T08:10:09;6.43;;;5.38;;
14766;SDS011;7475;53.558;9.970;2023-01-09T08:12:34;8.38;;;5.65;;
14766;SDS011;7475;53.558;9.970;2023-01-09T08:14:59;7.65;;;4.97;;
14766;SDS011;7475;53.558;9.970;2023-01-09T08:17:25;8.52;;;6.72;;
14766;SDS011;7475;53.558;9.970;2023-01-09T08:19:50;8.77;;;5.75;;
14766;SDS011;7475;53.558;9.970;2023-01-09T08:22:15;8.27;;;6.30;;
14766;SDS011;7475;53.558;9.970;2023-01-09T08:24:40;9.75;;;6.05;;
14766;SDS011;7475;53.558;9.970;2023-01-09T08:27:08;8.18;;;6.57;;
14766;SDS011;7475;53.558;9.970;2023-01-09T08:29:34;8.57;;;7.05;;
14766;SDS011;7475;53.558;9.970;2023-01-09T08:31:59;8.93;;;6.90;;
14766;SDS011;7475;53.558;9.970;2023-01-09T08:34:25;7.80;;;6.85;;
14766;SDS011;7475;53.558;9.970;2023-01-09T08:36:50;7.72;;;6.70;;
14766;SDS011;7475;53.558;9.970;2023-01-09T08:39:17;9.43;;;7.60;;
14766;SDS011;7475;53.558;9.970;2023-01-09T08:41:42;8.30;;;6.72;;
14766;SDS011;7475;53.558;9.970;2023-01-09T08:44:26;9.52;;;7.32;;
14766;SDS011;7475;53.558;9.970;2023-01-09T08:47:10;10.95;;;7.22;;
14766;SDS011;7475;53.558;9.970;2023-01-09T08:49:37;10.10;;;7.82;;
14766;SDS011;7475;53.558;9.970;2023-01-09T08:52:03;11.35;;;8.90;;
14766;SDS011;7475;53.558;9.970;2023-01-09T08:54:28;11.73;;;8.07;;
14766;SDS011;7475;53.558;9.970;2023-01-09T08:56:53;13.60;;;8.60;;
14766;SDS011;7475;53.558;9.970;2023-01-09T08:59:18;11.98;;;9.20;;
14766;SDS011;7475;53.558;9.970;2023-01-09T09:01:44;11.18;;;9.68;;
14766;SDS011;7475;53.558;9.970;2023-01-09T09:04:09;11.50;;;8.63;;
14766;SDS011;7475;53.558;9.970;2023-01-09T09:06:34;11.15;;;9.82;;
14766;SDS011;7475;53.558;9.970;2023-01-09T09:08:59;12.40;;;8.82;;
14766;SDS011;7475;53.558;9.970;2023-01-09T09:11:31;12.38;;;8.75;;
14766;SDS011;7475;53.558;9.970;2023-01-09T09:13:56;11.73;;;9.27;;
14766;SDS011;7475;53.558;9.970;2023-01-09T09:16:22;13.68;;;8.65;;
14766;SDS011;7475;53.558;9.970;2023-01-09T09:18:48;12.10;;;8.73;;
14766;SDS011;7475;53.558;9.970;2023-01-09T09:21:13;9.82;;;8.18;;
14766;SDS011;7475;53.558;9.970;2023-01-09T09:23:38;14.93;;;8.02;;
14766;SDS011;7475;53.558;9.970;2023-01-09T09:26:03;12.55;;;7.85;;
14766;SDS011;7475;53.558;9.970;2023-01-09T09:28:28;12.15;;;7.10;;
14766;SDS011;7475;53.558;9.970;2023-01-09T09:30:54;9.52;;;7.03;;
14766;SDS011;7475;53.558;9.970;2023-01-09T09:33:19;8.65;;;7.30;;
14766;SDS011;7475;53.558;9.970;2023-01-09T09:35:44;9.48;;;6.75;;
14766;SDS011;7475;53.558;9.970;2023-01-09T09:38:09;11.45;;;6.50;;
14766;SDS011;7475;53.558;9.970;2023-01-09T09:40:46;8.75;;;6.75;;
14766;SDS011;7475;53.558;9.970;2023-01-09T09:46:43;7.75;;;6.15;;
14766;SDS011;7475;53.558;9.970;2023-01-09T09:49:13;10.88;;;6.25;;
14766;SDS011;7475;53.558;9.970;2023-01-09T09:51:54;9.60;;;5.75;;
14766;SDS011;7475;53.558;9.970;2023-01-09T09:54:24;9.85;;;6.20;;
14766;SDS011;7475;53.558;9.970;2023-01-09T09:56:52;5.07;;;3.58;;
14766;SDS011;7475;53.558;9.970;2023-01-09T09:59:21;11.02;;;5.18;;
14766;SDS011;7475;53.558;9.970;2023-01-09T10:01:50;8.27;;;5.10;;
14766;SDS011;7475;53.558;9.970;2023-01-09T10:04:17;13.73;;;5.60;;
14766;SDS011;7475;53.558;9.970;2023-01-09T10:06:46;7.43;;;5.05;;
14766;SDS011;7475;53.558;9.970;2023-01-09T10:14:18;7.63;;;4.50;;
14766;SDS011;7475;53.558;9.970;2023-01-09T10:17:05;10.30;;;4.47;;
14766;SDS011;7475;53.558;9.970;2023-01-09T10:19:53;9.10;;;4.57;;
14766;SDS011;7475;53.558;9.970;2023-01-09T10:24:57;8.93;;;5.22;;
14766;SDS011;7475;53.558;9.970;2023-01-09T10:30:42;6.28;;;3.22;;
14766;SDS011;7475;53.558;9.970;2023-01-09T10:38:08;8.57;;;4.72;;
14766;SDS011;7475;53.558;9.970;2023-01-09T10:40:34;9.18;;;4.57;;
14766;SDS011;7475;53.558;9.970;2023-01-09T10:45:31;10.10;;;3.70;;
14766;SDS011;7475;53.558;9.970;2023-01-09T10:48:02;8.93;;;4.43;;
14766;SDS011;7475;53.558;9.970;2023-01-09T10:50:33;6.60;;;3.90;;
14766;SDS011;7475;53.558;9.970;2023-01-09T10:52:59;9.27;;;3.83;;
14766;SDS011;7475;53.558;9.970;2023-01-09T10:57:57;7.60;;;3.88;;
14766;SDS011;7475;53.558;9.970;2023-01-09T11:00:23;8.80;;;3.95;;
14766;SDS011;7475;53.558;9.970;2023-01-09T11:02:49;10.50;;;3.60;;
14766;SDS011;7475;53.558;9.970;2023-01-09T11:05:19;9.05;;;3.95;;
14766;SDS011;7475;53.558;9.970;2023-01-09T11:07:45;6.30;;;3.85;;
14766;SDS011;7475;53.558;9.970;2023-01-09T11:10:12;7.03;;;2.85;;
14766;SDS011;7475;53.558;9.970;2023-01-09T11:12:38;11.20;;;3.90;;
14766;SDS011;7475;53.558;9.970;2023-01-09T11:17:44;8.02;;;2.85;;
14766;SDS011;7475;53.558;9.970;2023-01-09T11:22:51;7.50;;;3.10;;
14766;SDS011;7475;53.558;9.970;2023-01-09T11:25:17;11.15;;;3.10;;
14766;SDS011;7475;53.558;9.970;2023-01-09T11:27:43;7.65;;;3.10;;
14766;SDS011;7475;53.558;9.970;2023-01-09T11:32:33;7.78;;;3.28;;
14766;SDS011;7475;53.558;9.970;2023-01-09T11:34:59;6.43;;;2.70;;
14766;SDS011;7475;53.558;9.970;2023-01-09T11:37:25;10.10;;;3.00;;
14766;SDS011;7475;53.558;9.970;2023-01-09T11:39:52;5.53;;;2.88;;
14766;SDS011;7475;53.558;9.970;2023-01-09T11:42:18;6.13;;;2.88;;
14766;SDS011;7475;53.558;9.970;2023-01-09T11:44:43;8.45;;;3.35;;
14766;SDS011;7475;53.558;9.970;2023-01-09T11:47:36;7.75;;;2.95;;
14766;SDS011;7475;53.558;9.970;2023-01-09T11:50:06;7.03;;;3.28;;
14766;SDS011;7475;53.558;9.970;2023-01-09T11:52:35;8.43;;;3.60;;
14766;SDS011;7475;53.558;9.970;2023-01-09T11:55:08;8.50;;;3.78;;
14766;SDS011;7475;53.558;9.970;2023-01-09T11:57:35;7.07;;;3.22;;
14766;SDS011;7475;53.558;9.970;2023-01-09T12:00:02;8.77;;;4.40;;
14766;SDS011;7475;53.558;9.970;2023-01-09T12:02:45;7.68;;;3.65;;
14766;SDS011;7475;53.558;9.970;2023-01-09T12:05:22;8.43;;;3.47;;
14766;SDS011;7475;53.558;9.970;2023-01-09T12:12:59;9.20;;;4.82;;
14766;SDS011;7475;53.558;9.970;2023-01-09T12:15:44;6.63;;;4.22;;
14766;SDS011;7475;53.558;9.970;2023-01-09T12:21:15;9.25;;;4.70;;
14766;SDS011;7475;53.558;9.970;2023-01-09T12:24:20;7.85;;;4.18;;
14766;SDS011;7475;53.558;9.970;2023-01-09T12:37:38;8.25;;;4.63;;
14766;SDS011;7475;53.558;9.970;2023-01-09T12:42:35;8.05;;;4.80;;
14766;SDS011;7475;53.558;9.970;2023-01-09T12:47:45;8.35;;;4.28;;
14766;SDS011;7475;53.558;9.970;2023-01-09T12:52:42;9.35;;;5.30;;
14766;SDS011;7475;53.558;9.970;2023-01-09T12:55:13;12.68;;;6.65;;
14766;SDS011;7475;53.558;9.970;2023-01-09T12:57:41;9.70;;;5.80;;
14766;SDS011;7475;53.558;9.970;2023-01-09T13:02:52;10.10;;;5.53;;
14766;SDS011;7475;53.558;9.970;2023-01-09T13:05:22;8.00;;;5.72;;
14766;SDS011;7475;53.558;9.970;2023-01-09T13:12:57;10.23;;;6.30;;
14766;SDS011;7475;53.558;9.970;2023-01-09T13:15:28;13.38;;;6.22;;
14766;SDS011;7475;53.558;9.970;2023-01-09T13:18:03;7.95;;;5.93;;
14766;SDS011;7475;53.558;9.970;2023-01-09T13:20:35;9.65;;;5.70;;
14766;SDS011;7475;53.558;9.970;2023-01-09T13:23:02;10.15;;;5.57;;
14766;SDS011;7475;53.558;9.970;2023-01-09T13:25:36;7.95;;;4.72;;
14766;SDS011;7475;53.558;9.970;2023-01-09T13:28:07;12.57;;;5.15;;
14766;SDS011;7475;53.558;9.970;2023-01-09T13:33:36;8.73;;;5.45;;
14766;SDS011;7475;53.558;9.970;2023-01-09T13:36:03;10.32;;;5.30;;
14766;SDS011;7475;53.558;9.970;2023-01-09T13:38:29;10.57;;;6.07;;
14766;SDS011;7475;53.558;9.970;2023-01-09T13:41:14;7.47;;;5.07;;
14766;SDS011;7475;53.558;9.970;2023-01-09T13:44:00;10.30;;;5.53;;
14766;SDS011;7475;53.558;9.970;2023-01-09T13:46:47;7.93;;;5.53;;
14766;SDS011;7475;53.558;9.970;2023-01-09T13:55:00;9.90;;;5.15;;
14766;SDS011;7475;53.558;9.970;2023-01-09T13:57:29;7.22;;;5.10;;
14766;SDS011;7475;53.558;9.970;2023-01-09T14:05:11;7.65;;;5.30;;
14766;SDS011;7475;53.558;9.970;2023-01-09T14:07:42;11.50;;;5.68;;
14766;SDS011;7475;53.558;9.970;2023-01-09T14:12:43;10.25;;;5.28;;
14766;SDS011;7475;53.558;9.970;2023-01-09T14:20:54;9.77;;;4.72;;
14766;SDS011;7475;53.558;9.970;2023-01-09T14:23:21;5.38;;;3.95;;
14766;SDS011;7475;53.558;9.970;2023-01-09T14:25:47;9.50;;;4.63;;
14766;SDS011;7475;53.558;9.970;2023-01-09T14:28:19;7.85;;;4.05;;
14766;SDS011;7475;53.558;9.970;2023-01-09T14:40:46;9.75;;;4.75;;
14766;SDS011;7475;53.558;9.970;2023-01-09T14:43:37;8.13;;;4.00;;
14766;SDS011;7475;53.558;9.970;2023-01-09T14:46:05;7.38;;;4.68;;
14766;SDS011;7475;53.558;9.970;2023-01-09T14:48:33;6.60;;;4.70;;
14766;SDS011;7475;53.558;9.970;2023-01-09T14:50:59;10.27;;;5.50;;
14766;SDS011;7475;53.558;9.970;2023-01-09T14:53:30;9.73;;;5.35;;
14766;SDS011;7475;53.558;9.970;2023-01-09T14:55:56;10.18;;;5.88;;
14766;SDS011;7475;53.558;9.970;2023-01-09T14:58:23;12.23;;;6.40;;
14766;SDS011;7475;53.558;9.970;2023-01-09T15:01:04;10.43;;;5.13;;
14766;SDS011;7475;53.558;9.970;2023-01-09T15:03:36;10.18;;;5.35;;
14766;SDS011;7475;53.558;9.970;2023-01-09T15:06:02;6.90;;;5.72;;
14766;SDS011;7475;53.558;9.970;2023-01-09T15:08:27;13.02;;;6.78;;
14766;SDS011;7475;53.558;9.970;2023-01-09T15:10:53;8.80;;;6.57;;
14766;SDS011;7475;53.558;9.970;2023-01-09T15:13:24;10.52;;;6.82;;
14766;SDS011;7475;53.558;9.970;2023-01-09T15:15:50;21.20;;;13.73;;
14766;SDS011;7475;53.558;9.970;2023-01-09T15:18:20;15.32;;;8.93;;
14766;SDS011;7475;53.558;9.970;2023-01-09T15:20:49;15.95;;;10.02;;
14766;SDS011;7475;53.558;9.970;2023-01-09T15:23:22;13.82;;;7.38;;
14766;SDS011;7475;53.558;9.970;2023-01-09T15:25:47;14.85;;;7.22;;
14766;SDS011;7475;53.558;9.970;2023-01-09T15:28:21;10.50;;;6.35;;
14766;SDS011;7475;53.558;9.970;2023-01-09T15:30:46;10.30;;;7.53;;
14766;SDS011;7475;53.558;9.970;2023-01-09T15:33:19;10.82;;;6.22;;
14766;SDS011;7475;53.558;9.970;2023-01-09T15:35:45;8.45;;;7.00;;
14766;SDS011;7475;53.558;9.970;2023-01-09T15:38:21;15.85;;;9.15;;
14766;SDS011;7475;53.558;9.970;2023-01-09T15:40:57;11.05;;;8.82;;
14766;SDS011;7475;53.558;9.970;2023-01-09T15:43:23;33.42;;;26.88;;
14766;SDS011;7475;53.558;9.970;2023-01-09T15:45:48;12.10;;;8.98;;
14766;SDS011;7475;53.558;9.970;2023-01-09T15:50:48;12.60;;;8.57;;
14766;SDS011;7475;53.558;9.970;2023-01-09T15:53:15;13.90;;;8.48;;
14766;SDS011;7475;53.558;9.970;2023-01-09T15:55:41;12.88;;;7.75;;
14766;SDS011;7475;53.558;9.970;2023-01-09T15:58:25;11.80;;;7.68;;
14766;SDS011;7475;53.558;9.970;2023-01-09T16:00:55;13.95;;;7.00;;
14766;SDS011;7475;53.558;9.970;2023-01-09T16:03:21;11.82;;;8.13;;
14766;SDS011;7475;53.558;9.970;2023-01-09T16:05:51;8.90;;;6.03;;
14766;SDS011;7475;53.558;9.970;2023-01-09T16:08:18;8.43;;;6.25;;
14766;SDS011;7475;53.558;9.970;2023-01-09T16:10:47;12.60;;;7.53;;
14766;SDS011;7475;53.558;9.970;2023-01-09T16:13:13;7.80;;;5.28;;
14766;SDS011;7475;53.558;9.970;2023-01-09T16:15:39;9.07;;;5.97;;
14766;SDS011;7475;53.558;9.970;2023-01-09T16:20:41;10.38;;;5.82;;
14766;SDS011;7475;53.558;9.970;2023-01-09T16:23:19;9.82;;;6.05;;
14766;SDS011;7475;53.558;9.970;2023-01-09T16:25:45;10.32;;;5.63;;
14766;SDS011;7475;53.558;9.970;2023-01-09T16:28:17;6.72;;;5.78;;
14766;SDS011;7475;53.558;9.970;2023-01-09T16:30:51;8.40;;;5.40;;
14766;SDS011;7475;53.558;9.970;2023-01-09T16:33:18;10.98;;;6.45;;
14766;SDS011;7475;53.558;9.970;2023-01-09T16:35:44;6.03;;;4.93;;
14766;SDS011;7475;53.558;9.970;2023-01-09T16:38:10;6.57;;;4.93;;
14766;SDS011;7475;53.558;9.970;2023-01-09T16:40:37;7.97;;;4.15;;
14766;SDS011;7475;53.558;9.970;2023-01-09T16:43:03;7.47;;;4.55;;
14766;SDS011;7475;53.558;9.970;2023-01-09T16:45:33;5.68;;;4.38;;
14766;SDS011;7475;53.558;9.970;2023-01-09T16:47:59;7.43;;;4.57;;
14766;SDS011;7475;53.558;9.970;2023-01-09T16:50:24;6.72;;;4.10;;
14766;SDS011;7475;53.558;9.970;2023-01-09T16:52:50;4.75;;;3.88;;
14766;SDS011;7475;53.558;9.970;2023-01-09T16:55:15;6.15;;;3.90;;
14766;SDS011;7475;53.558;9.970;2023-01-09T16:57:40;5.70;;;4.20;;
14766;SDS011;7475;53.558;9.970;2023-01-09T17:00:12;5.80;;;4.35;;
14766;SDS011;7475;53.558;9.970;2023-01-09T17:02:37;15.27;;;12.07;;
14766;SDS011;7475;53.558;9.970;2023-01-09T17:05:03;5.43;;;4.03;;
14766;SDS011;7475;53.558;9.970;2023-01-09T17:07:28;7.03;;;4.22;;